createdAt,value
2018-07-09T00:05:06.028Z,34.06
2018-07-09T00:07:34.929Z,33.33
2018-07-09T00:10:03.966Z,33.55
2018-07-09T00:12:32.839Z,33.29
2018-07-09T00:15:02.027Z,33.76
2018-07-09T00:17:30.952Z,34.00
2018-07-09T00:19:59.951Z,33.47
2018-07-09T00:22:29.045Z,33.10
2018-07-09T00:24:57.949Z,33.84
2018-07-09T00:27:26.964Z,33.37
2018-07-09T00:29:56.196Z,33.48
2018-07-09T00:32:25.009Z,33.04
2018-07-09T00:34:53.968Z,32.94
2018-07-09T00:37:22.913Z,33.15
2018-07-09T00:39:51.850Z,33.87
2018-07-09T00:42:20.758Z,33.51
2018-07-09T00:44:50.050Z,32.90
2018-07-09T00:47:18.839Z,33.01
2018-07-09T00:49:47.827Z,33.00
2018-07-09T00:52:17.002Z,32.85
2018-07-09T00:54:45.819Z,32.76
2018-07-09T00:57:14.669Z,33.52
2018-07-09T00:59:43.822Z,33.37
2018-07-09T01:02:12.955Z,33.03
2018-07-09T01:04:42.051Z,33.02
2018-07-09T01:07:11.094Z,33.03
2018-07-09T01:09:40.258Z,33.00
2018-07-09T01:12:12.972Z,32.59
2018-07-09T01:14:42.485Z,32.94
2018-07-09T01:17:11.598Z,32.61
2018-07-09T01:19:40.732Z,32.72
2018-07-09T01:22:09.688Z,33.40
2018-07-09T01:24:38.808Z,32.64
2018-07-09T01:27:07.610Z,32.66
2018-07-09T01:29:36.704Z,32.68
2018-07-09T01:32:05.806Z,32.75
2018-07-09T01:34:34.810Z,32.86
2018-07-09T01:37:03.839Z,32.48
2018-07-09T01:39:32.625Z,33.13
2018-07-09T01:42:01.875Z,32.92
2018-07-09T01:44:30.937Z,32.43
2018-07-09T01:47:00.039Z,32.45
2018-07-09T01:49:29.177Z,32.40
2018-07-09T01:51:58.215Z,32.99
2018-07-09T01:54:27.147Z,33.09
2018-07-09T01:56:56.165Z,32.80
2018-07-09T01:59:25.243Z,33.14
2018-07-09T02:01:54.186Z,32.65
2018-07-09T02:04:23.238Z,32.29
2018-07-09T02:06:52.159Z,32.42
2018-07-09T02:09:21.079Z,32.34
2018-07-09T02:11:50.052Z,32.43
2018-07-09T02:14:19.204Z,33.35
2018-07-09T02:16:48.184Z,32.56
2018-07-09T02:19:17.201Z,32.57
2018-07-09T02:21:46.313Z,32.79
2018-07-09T02:24:15.280Z,32.88
2018-07-09T02:26:44.305Z,33.06
2018-07-09T02:29:13.271Z,32.91
2018-07-09T02:31:42.430Z,33.07
2018-07-09T02:34:11.564Z,32.27
2018-07-09T02:36:40.670Z,32.34
2018-07-09T02:39:09.672Z,32.78
2018-07-09T02:41:38.718Z,33.00
2018-07-09T02:44:07.909Z,32.61
2018-07-09T02:46:37.029Z,33.11
2018-07-09T02:49:05.947Z,32.76
2018-07-09T02:51:34.944Z,32.49
2018-07-09T02:54:03.918Z,33.03
2018-07-09T02:56:32.882Z,32.41
2018-07-09T02:59:01.921Z,33.27
2018-07-09T03:01:30.870Z,33.00
2018-07-09T03:04:00.028Z,32.21
2018-07-09T03:06:29.255Z,32.21
2018-07-09T03:08:58.360Z,32.65
2018-07-09T03:11:27.461Z,32.20
2018-07-09T03:13:56.599Z,32.85
2018-07-09T03:16:25.650Z,32.99
2018-07-09T03:18:54.558Z,32.97
2018-07-09T03:21:23.605Z,32.48
2018-07-09T03:23:52.622Z,32.54
2018-07-09T03:26:21.669Z,32.43
2018-07-09T03:28:50.798Z,32.26
2018-07-09T03:31:19.762Z,32.25
2018-07-09T03:33:48.806Z,32.12
2018-07-09T03:36:17.942Z,32.08
2018-07-09T03:38:47.065Z,32.94
2018-07-09T03:41:16.159Z,32.00
2018-07-09T03:43:45.205Z,33.28
2018-07-09T03:46:14.172Z,32.45
2018-07-09T03:48:43.276Z,32.05
2018-07-09T03:51:12.386Z,32.15
2018-07-09T03:53:41.542Z,32.84
2018-07-09T03:56:10.444Z,32.22
2018-07-09T03:58:39.571Z,31.97
2018-07-09T04:01:08.702Z,33.05
2018-07-09T04:03:37.482Z,32.09
2018-07-09T04:06:06.267Z,32.36
2018-07-09T04:08:35.188Z,32.63
2018-07-09T04:11:04.176Z,32.57
2018-07-09T04:13:33.335Z,32.81
2018-07-09T04:16:02.274Z,32.29
2018-07-09T04:18:31.420Z,32.45
2018-07-09T04:21:00.436Z,32.38
2018-07-09T04:23:29.418Z,32.86
2018-07-09T04:25:58.360Z,32.63
2018-07-09T04:28:27.547Z,32.64
2018-07-09T04:30:56.491Z,32.33
2018-07-09T04:33:25.591Z,32.24
2018-07-09T04:35:54.540Z,31.98
2018-07-09T04:38:23.475Z,32.27
2018-07-09T04:40:52.481Z,31.95
2018-07-09T04:43:21.576Z,32.24
2018-07-09T04:45:50.531Z,31.83
2018-07-09T04:48:19.616Z,32.41
2018-07-09T04:50:48.615Z,32.36
2018-07-09T04:53:17.605Z,31.93
2018-07-09T04:55:46.501Z,31.75
2018-07-09T04:58:15.935Z,32.49
2018-07-09T05:00:44.710Z,32.36
2018-07-09T05:03:13.874Z,32.47
2018-07-09T05:05:42.730Z,31.81
2018-07-09T05:08:11.667Z,32.13
2018-07-09T05:10:40.567Z,32.01
2018-07-09T05:13:09.570Z,31.96
2018-07-09T05:15:38.650Z,31.95
2018-07-09T05:18:08.324Z,31.78
2018-07-09T05:20:37.124Z,32.24
2018-07-09T05:23:06.438Z,32.46
2018-07-09T05:25:35.395Z,31.50
2018-07-09T05:28:04.625Z,32.50
2018-07-09T05:30:33.731Z,31.57
2018-07-09T05:33:02.903Z,32.11
2018-07-09T05:35:31.818Z,32.40
2018-07-09T05:38:00.794Z,31.73
2018-07-09T05:40:30.060Z,31.99
2018-07-09T05:42:59.533Z,32.52
2018-07-09T05:45:28.632Z,31.65
2018-07-09T05:47:58.653Z,32.59
2018-07-09T05:50:27.751Z,32.20
2018-07-09T05:52:57.047Z,31.60
2018-07-09T05:55:25.789Z,31.81
2018-07-09T05:57:54.635Z,31.64
2018-07-09T06:00:23.859Z,32.03
2018-07-09T06:02:53.008Z,32.39
2018-07-09T06:05:22.827Z,32.37
2018-07-09T06:07:51.734Z,32.03
2018-07-09T06:10:20.695Z,32.01
2018-07-09T06:12:49.801Z,31.76
2018-07-09T06:15:18.795Z,31.70
2018-07-09T06:17:48.107Z,32.04
2018-07-09T06:20:17.126Z,32.54
2018-07-09T06:22:46.357Z,32.28
2018-07-09T06:25:15.183Z,32.34
2018-07-09T06:27:44.167Z,32.34
2018-07-09T06:30:13.044Z,32.40
2018-07-09T06:32:41.934Z,32.42
2018-07-09T06:35:11.123Z,31.62
2018-07-09T06:37:40.211Z,32.52
2018-07-09T06:40:09.245Z,31.99
2018-07-09T06:42:38.259Z,32.05
2018-07-09T06:45:07.450Z,31.73
2018-07-09T06:47:36.662Z,31.58
2018-07-09T06:50:05.783Z,31.64
2018-07-09T06:52:34.695Z,31.60
2018-07-09T06:55:03.866Z,32.19
2018-07-09T06:57:32.794Z,31.97
2018-07-09T07:00:01.951Z,32.00
2018-07-09T07:02:30.982Z,31.93
2018-07-09T07:05:00.026Z,31.91
2018-07-09T07:07:29.142Z,32.18
2018-07-09T07:09:58.403Z,32.25
2018-07-09T07:12:27.297Z,31.62
2018-07-09T07:14:56.316Z,32.32
2018-07-09T07:17:25.427Z,31.83
2018-07-09T07:19:55.451Z,32.29
2018-07-09T07:22:24.583Z,31.60
2018-07-09T07:24:53.619Z,31.92
2018-07-09T07:27:23.092Z,32.33
2018-07-09T07:29:52.018Z,32.33
2018-07-09T07:32:21.084Z,31.94
2018-07-09T07:34:50.005Z,31.71
2018-07-09T07:37:18.886Z,31.94
2018-07-09T07:39:47.783Z,31.87
2018-07-09T07:42:16.634Z,31.90
2018-07-09T07:44:45.836Z,32.27
2018-07-09T07:47:14.724Z,32.13
2018-07-09T07:49:43.761Z,32.01
2018-07-09T07:52:12.633Z,32.27
2018-07-09T07:54:41.432Z,31.96
2018-07-09T07:57:10.784Z,31.77
2018-07-09T07:59:39.842Z,31.93
2018-07-09T08:02:08.977Z,32.21
2018-07-09T08:04:37.930Z,31.80
2018-07-09T08:07:06.924Z,31.96
2018-07-09T08:09:35.831Z,31.55
2018-07-09T08:12:59.659Z,31.41
2018-07-09T08:14:33.993Z,31.80
2018-07-09T08:17:03.221Z,31.35
2018-07-09T08:19:31.998Z,32.11
2018-07-09T08:22:00.904Z,31.45
2018-07-09T08:24:29.733Z,32.10
2018-07-09T08:26:58.766Z,32.04
2018-07-09T08:29:27.854Z,31.92
2018-07-09T08:31:56.975Z,31.99
2018-07-09T08:34:26.021Z,31.89
2018-07-09T08:36:55.154Z,31.44
2018-07-09T08:39:24.292Z,31.55
2018-07-09T08:41:53.545Z,31.61
2018-07-09T08:44:22.454Z,31.99
2018-07-09T08:46:51.343Z,31.28
2018-07-09T08:49:20.426Z,32.08
2018-07-09T08:51:49.430Z,31.85
2018-07-09T08:54:18.320Z,31.38
2018-07-09T08:56:47.312Z,32.53
2018-07-09T08:59:16.304Z,31.85
2018-07-09T09:01:45.313Z,32.15
2018-07-09T09:04:14.290Z,31.50
2018-07-09T09:06:43.302Z,32.28
2018-07-09T09:09:12.287Z,31.50
2018-07-09T09:11:41.401Z,31.81
2018-07-09T09:14:10.242Z,31.86
2018-07-09T09:16:39.206Z,32.17
2018-07-09T09:19:08.172Z,32.45
2018-07-09T09:21:36.932Z,32.70
2018-07-09T09:24:05.982Z,32.17
2018-07-09T09:26:34.818Z,32.46
2018-07-09T09:29:03.658Z,32.28
2018-07-09T09:31:32.622Z,32.37
2018-07-09T09:34:01.329Z,32.50
2018-07-09T09:36:30.108Z,32.48
2018-07-09T09:38:58.907Z,32.97
2018-07-09T09:41:27.936Z,32.85
2018-07-09T09:43:57.133Z,33.12
2018-07-09T09:46:26.164Z,32.96
2018-07-09T09:48:55.062Z,33.59
2018-07-09T09:51:23.916Z,33.37
2018-07-09T09:53:53.117Z,33.78
2018-07-09T09:56:22.425Z,33.29
2018-07-09T09:58:51.607Z,33.88
2018-07-09T10:01:20.651Z,33.15
2018-07-09T10:03:49.542Z,33.94
2018-07-09T10:06:18.636Z,33.94
2018-07-09T10:08:47.730Z,34.33
2018-07-09T10:11:16.778Z,33.88
2018-07-09T10:13:45.929Z,34.37
2018-07-09T10:16:14.982Z,33.98
2018-07-09T10:18:44.093Z,34.40
2018-07-09T10:21:13.216Z,33.61
2018-07-09T10:23:42.086Z,33.89
2018-07-09T10:26:10.998Z,33.52
2018-07-09T10:28:40.203Z,34.07
2018-07-09T10:31:09.231Z,34.51
2018-07-09T10:33:38.294Z,34.50
2018-07-09T10:36:07.259Z,34.04
2018-07-09T10:38:36.275Z,34.52
2018-07-09T10:41:05.328Z,34.11
2018-07-09T10:43:34.316Z,34.65
2018-07-09T10:46:03.363Z,34.41
2018-07-09T10:48:32.292Z,34.44
2018-07-09T10:51:01.200Z,34.04
2018-07-09T10:53:30.492Z,33.67
2018-07-09T10:55:59.947Z,33.65
2018-07-09T10:58:29.021Z,34.03
2018-07-09T11:00:58.114Z,34.09
2018-07-09T11:03:27.236Z,33.58
2018-07-09T11:05:56.400Z,33.50
2018-07-09T11:08:25.480Z,34.49
2018-07-09T11:10:54.540Z,33.71
2018-07-09T11:13:23.634Z,34.27
2018-07-09T11:15:52.836Z,34.13
2018-07-09T11:18:21.885Z,34.17
2018-07-09T11:20:51.100Z,34.35
2018-07-09T11:23:19.968Z,33.65
2018-07-09T11:25:48.906Z,33.57
2018-07-09T11:28:18.166Z,33.41
2018-07-09T11:30:47.204Z,33.49
2018-07-09T11:33:16.226Z,33.74
2018-07-09T11:35:45.190Z,34.07
2018-07-09T11:38:14.187Z,33.94
2018-07-09T11:40:42.921Z,34.02
2018-07-09T11:43:11.738Z,33.86
2018-07-09T11:45:40.672Z,33.90
2018-07-09T11:48:09.553Z,33.36
2018-07-09T11:50:38.343Z,33.61
2018-07-09T11:53:07.684Z,33.55
2018-07-09T11:55:36.797Z,33.52
2018-07-09T11:58:05.935Z,33.76
2018-07-09T12:00:35.413Z,33.53
2018-07-09T12:03:04.581Z,34.15
2018-07-09T12:05:33.666Z,33.98
2018-07-09T12:08:02.852Z,33.61
2018-07-09T12:10:31.872Z,33.55
2018-07-09T12:13:01.038Z,33.55
2018-07-09T12:15:30.075Z,33.65
2018-07-09T12:17:58.938Z,34.00
2018-07-09T12:20:27.996Z,33.33
2018-07-09T12:22:56.885Z,33.30
2018-07-09T12:25:26.001Z,33.20
2018-07-09T12:27:54.897Z,33.62
2018-07-09T12:30:24.187Z,33.70
2018-07-09T12:32:53.065Z,33.62
2018-07-09T12:35:22.179Z,33.00
2018-07-09T12:37:51.159Z,33.92
2018-07-09T12:40:20.259Z,33.29
2018-07-09T12:42:49.277Z,33.19
2018-07-09T12:45:18.205Z,33.09
2018-07-09T12:47:47.289Z,33.63
2018-07-09T12:50:16.247Z,33.03
2018-07-09T12:52:45.541Z,33.39
2018-07-09T12:55:14.644Z,32.85
2018-07-09T12:57:43.838Z,33.00
2018-07-09T13:00:12.777Z,33.45
2018-07-09T13:02:41.971Z,33.70
2018-07-09T13:05:11.017Z,32.76
2018-07-09T13:07:39.955Z,33.70
2018-07-09T13:10:09.064Z,33.39
2018-07-09T13:12:38.078Z,33.16
2018-07-09T13:15:07.417Z,33.54
2018-07-09T13:17:37.794Z,32.54
2018-07-09T13:20:06.896Z,33.39
2018-07-09T13:22:35.993Z,32.83
2018-07-09T13:25:05.263Z,32.74
2018-07-09T13:27:34.389Z,33.21
2018-07-09T13:30:03.571Z,33.27
2018-07-09T13:32:32.792Z,32.69
2018-07-09T13:35:02.185Z,33.28
2018-07-09T13:37:31.431Z,33.27
2018-07-09T13:40:00.293Z,32.91
2018-07-09T13:42:29.027Z,32.40
2018-07-09T13:44:57.952Z,32.82
2018-07-09T13:47:27.045Z,32.71
2018-07-09T13:49:56.201Z,32.56
2018-07-09T13:52:25.134Z,32.35
2018-07-09T13:54:54.106Z,33.28
2018-07-09T13:57:23.438Z,32.77
2018-07-09T13:59:52.259Z,32.85
2018-07-09T14:02:21.258Z,33.24
2018-07-09T14:04:50.420Z,32.74
2018-07-09T14:07:19.246Z,33.24
2018-07-09T14:09:48.317Z,33.44
2018-07-09T14:12:17.350Z,33.21
2018-07-09T14:14:46.138Z,33.50
2018-07-09T14:17:14.872Z,32.90
2018-07-09T14:20:27.537Z,32.70
2018-07-09T14:22:56.842Z,32.86
2018-07-09T14:25:25.966Z,33.07
2018-07-09T14:27:54.946Z,33.20
2018-07-09T14:30:24.520Z,32.49
2018-07-09T14:32:53.632Z,32.59
2018-07-09T14:35:22.433Z,33.36
2018-07-09T14:37:51.366Z,32.48
2018-07-09T14:40:20.465Z,33.09
2018-07-09T14:42:49.455Z,32.65
2018-07-09T14:45:18.359Z,32.62
2018-07-09T14:47:47.356Z,32.75
2018-07-09T14:50:16.232Z,32.75
2018-07-09T14:52:45.325Z,32.57
2018-07-09T14:55:14.384Z,32.72
2018-07-09T14:57:43.579Z,32.42
2018-07-09T15:00:12.677Z,32.35
2018-07-09T15:02:41.885Z,32.51
2018-07-09T15:05:10.871Z,33.00
2018-07-09T15:07:40.073Z,32.79
2018-07-09T15:10:09.279Z,32.51
2018-07-09T15:12:38.068Z,33.16
2018-07-09T15:15:07.158Z,32.35
2018-07-09T15:17:36.167Z,32.51
2018-07-09T15:20:05.612Z,32.27
2018-07-09T15:22:34.683Z,32.98
2018-07-09T15:25:03.590Z,33.15
2018-07-09T15:27:32.842Z,33.15
2018-07-09T15:30:01.849Z,33.03
2018-07-09T15:32:32.019Z,32.97
2018-07-09T15:35:01.035Z,33.16
2018-07-09T15:37:30.362Z,32.94
2018-07-09T15:39:59.475Z,32.98
2018-07-09T15:42:28.776Z,32.44
2018-07-09T15:44:58.008Z,32.31
2018-07-09T15:47:27.013Z,33.09
2018-07-09T15:49:59.674Z,32.43
2018-07-09T15:52:28.918Z,32.70
2018-07-09T15:54:57.785Z,32.45
2018-07-09T15:57:26.621Z,32.52
2018-07-09T15:59:55.465Z,32.56
2018-07-09T16:02:24.293Z,32.78
2018-07-09T16:04:55.700Z,33.24
2018-07-09T16:07:24.998Z,33.38
2018-07-09T16:09:53.746Z,32.75
2018-07-09T16:12:22.874Z,32.62
2018-07-09T16:14:51.917Z,32.52
2018-07-09T16:17:20.917Z,33.04
2018-07-09T16:19:50.025Z,32.60
2018-07-09T16:22:18.985Z,32.56
2018-07-09T16:24:48.105Z,32.91
2018-07-09T16:27:17.190Z,33.33
2018-07-09T16:29:46.255Z,32.89
2018-07-09T16:32:15.306Z,33.38
2018-07-09T16:34:44.532Z,33.31
2018-07-09T16:37:13.552Z,33.69
2018-07-09T16:39:42.705Z,33.13
2018-07-09T16:42:11.726Z,32.77
2018-07-09T16:44:40.782Z,33.48
2018-07-09T16:47:10.828Z,33.35
2018-07-09T16:49:40.341Z,32.54
2018-07-09T16:52:09.359Z,32.98
2018-07-09T16:54:38.805Z,33.32
2018-07-09T16:57:07.602Z,32.66
2018-07-09T16:59:36.672Z,33.04
2018-07-09T17:02:05.933Z,33.22
2018-07-09T17:04:34.734Z,33.14
2018-07-09T17:07:03.754Z,33.23
2018-07-09T17:09:32.725Z,32.57
2018-07-09T17:12:01.907Z,33.01
2018-07-09T17:14:30.859Z,33.16
2018-07-09T17:16:59.866Z,32.94
2018-07-09T17:20:32.111Z,33.80
2018-07-09T17:23:01.284Z,33.56
2018-07-09T17:25:30.491Z,33.54
2018-07-09T17:27:59.499Z,33.98
2018-07-09T17:30:28.626Z,33.42
2018-07-09T17:32:57.731Z,33.49
2018-07-09T17:35:27.247Z,33.26
2018-07-09T17:37:56.489Z,33.70
2018-07-09T17:40:25.629Z,33.72
2018-07-09T17:42:54.653Z,33.29
2018-07-09T17:45:23.810Z,33.06
2018-07-09T17:47:52.948Z,32.68
2018-07-09T17:50:22.146Z,32.96
2018-07-09T17:52:51.392Z,33.18
2018-07-09T17:55:20.471Z,33.09
2018-07-09T17:57:49.664Z,32.82
2018-07-09T18:00:18.707Z,32.66
2018-07-09T18:02:47.980Z,32.68
2018-07-09T18:05:17.180Z,32.10
2018-07-09T18:07:46.018Z,32.80
2018-07-09T18:10:17.376Z,32.17
2018-07-09T18:12:47.337Z,32.75
2018-07-09T18:15:16.408Z,32.51
2018-07-09T18:17:45.569Z,31.81
2018-07-09T18:20:14.658Z,31.83
2018-07-09T18:22:43.897Z,32.57
2018-07-09T18:25:13.834Z,31.99
2018-07-09T18:27:43.290Z,31.96
2018-07-09T18:30:13.018Z,32.12
2018-07-09T18:32:42.174Z,31.50
2018-07-09T18:35:11.260Z,31.67
2018-07-09T18:37:41.371Z,31.87
2018-07-09T18:40:10.528Z,31.79
2018-07-09T18:42:39.695Z,31.31
2018-07-09T18:45:09.213Z,31.72
2018-07-09T18:47:38.438Z,32.13
2018-07-09T18:50:07.696Z,31.52
2018-07-09T18:52:37.604Z,31.76
2018-07-09T18:55:06.910Z,31.67
2018-07-09T18:57:36.095Z,31.84
2018-07-09T19:00:05.566Z,31.92
2018-07-09T19:02:34.695Z,32.08
2018-07-09T19:05:04.795Z,31.44
2018-07-09T19:07:34.098Z,31.35
2018-07-09T19:10:03.397Z,32.03
2018-07-09T19:12:34.930Z,31.42
2018-07-09T19:15:06.444Z,31.33
2018-07-09T19:17:56.424Z,31.16
2018-07-09T19:20:37.602Z,31.97
2018-07-09T19:23:06.417Z,32.02
2018-07-09T19:25:34.978Z,31.96
2018-07-09T19:28:04.114Z,31.61
2018-07-09T19:30:31.658Z,31.57
2018-07-09T19:32:59.403Z,31.96
2018-07-09T19:35:27.171Z,32.04
2018-07-09T19:37:55.106Z,31.94
2018-07-09T19:40:22.490Z,31.75
2018-07-09T19:42:50.464Z,32.30
2018-07-09T19:45:18.021Z,31.97
2018-07-09T19:47:45.543Z,31.94
2018-07-09T19:50:13.351Z,31.40
2018-07-09T19:52:40.973Z,31.32
2018-07-09T19:55:08.882Z,31.81
2018-07-09T19:57:36.550Z,32.16
2018-07-09T20:00:04.502Z,31.28
2018-07-09T20:02:32.119Z,32.14
2018-07-09T20:04:59.701Z,31.64
2018-07-09T20:07:27.385Z,31.49
2018-07-09T20:10:00.081Z,31.85
2018-07-09T20:12:32.756Z,31.43
2018-07-09T20:15:05.499Z,32.11
2018-07-09T20:17:36.480Z,31.92
2018-07-09T20:20:04.245Z,31.11
2018-07-09T20:22:31.825Z,31.86
2018-07-09T20:24:59.338Z,31.32
2018-07-09T20:27:26.959Z,31.33
2018-07-09T20:29:54.592Z,31.41
2018-07-09T20:32:22.265Z,31.42
2018-07-09T20:34:50.827Z,31.71
2018-07-09T20:37:18.309Z,31.68
2018-07-09T20:39:45.824Z,31.60
2018-07-09T20:42:13.423Z,31.13
2018-07-09T20:44:41.061Z,32.12
2018-07-09T20:47:08.665Z,31.55
2018-07-09T20:49:36.411Z,32.09
2018-07-09T20:52:04.891Z,31.96
2018-07-09T20:54:32.436Z,31.38
2018-07-09T20:57:00.114Z,32.05
2018-07-09T20:59:27.847Z,31.61
2018-07-09T21:01:55.431Z,32.06
2018-07-09T21:04:27.745Z,31.69
2018-07-09T21:06:56.833Z,31.16
2018-07-09T21:09:24.978Z,32.03
2018-07-09T21:11:52.748Z,31.19
2018-07-09T21:14:20.227Z,31.88
2018-07-09T21:16:47.832Z,32.07
2018-07-09T21:19:15.429Z,31.88
2018-07-09T21:21:43.047Z,31.15
2018-07-09T21:24:10.550Z,31.61
2018-07-09T21:26:38.166Z,31.16
2018-07-09T21:29:05.727Z,31.59
2018-07-09T21:31:33.352Z,31.85
2018-07-09T21:34:01.133Z,31.51
2018-07-09T21:36:28.762Z,32.07
2018-07-09T21:38:56.330Z,31.88
2018-07-09T21:41:23.905Z,31.37
2018-07-09T21:43:51.390Z,31.96
2018-07-09T21:46:19.001Z,31.83
2018-07-09T21:48:46.774Z,31.46
2018-07-09T21:51:14.328Z,32.11
2018-07-09T21:53:42.096Z,32.23
2018-07-09T21:56:09.759Z,31.66
2018-07-09T21:58:37.260Z,31.49
2018-07-09T22:01:04.899Z,31.49
2018-07-09T22:03:32.492Z,32.11
2018-07-09T22:06:00.203Z,32.07
2018-07-09T22:08:27.843Z,31.38
2018-07-09T22:10:55.430Z,32.07
2018-07-09T22:13:23.083Z,31.28
2018-07-09T22:15:50.673Z,31.74
2018-07-09T22:18:18.311Z,31.97
2018-07-09T22:20:45.815Z,31.80
2018-07-09T22:23:13.417Z,31.85
2018-07-09T22:25:41.096Z,31.56
2018-07-09T22:28:08.859Z,31.42
2018-07-09T22:30:38.003Z,31.38
2018-07-09T22:33:07.166Z,31.22
2018-07-09T22:35:36.239Z,31.92
2018-07-09T22:38:05.350Z,32.04
2018-07-09T22:40:34.381Z,32.67
2018-07-09T22:44:11.487Z,32.22
2018-07-09T22:46:40.595Z,32.10
2018-07-09T22:49:09.774Z,32.43
2018-07-09T22:51:38.946Z,32.12
2018-07-09T22:54:08.084Z,32.46
2018-07-09T22:56:37.067Z,32.57
2018-07-09T22:59:06.228Z,32.45
2018-07-09T23:01:35.317Z,31.99
2018-07-09T23:04:04.443Z,32.06
2018-07-09T23:06:33.539Z,32.41
2018-07-09T23:09:13.867Z,32.63
2018-07-09T23:12:28.230Z,31.97
2018-07-09T23:17:17.519Z,32.05
2018-07-09T23:22:04.706Z,31.84
2018-07-09T23:24:32.251Z,31.75
2018-07-09T23:26:59.924Z,32.10
2018-07-09T23:29:27.538Z,32.41
2018-07-09T23:31:54.976Z,32.66
2018-07-09T23:34:22.546Z,32.30
2018-07-09T23:36:50.115Z,31.89
2018-07-09T23:39:17.875Z,32.16
2018-07-09T23:41:45.379Z,32.79
2018-07-09T23:44:12.998Z,31.85
2018-07-09T23:46:40.508Z,32.76
2018-07-09T23:49:08.166Z,31.97
2018-07-09T23:51:35.880Z,31.97
2018-07-09T23:54:03.433Z,31.83
2018-07-09T23:58:53.944Z,32.08
